Time;durP1;ratioP1;P1;durP2;ratioP2;P2;SDS_P1;SDS_P2;PMS_P1;PMS_P2;Temp;Humidity;BMP_temperature;BMP_pressure;BME280_temperature;BME280_humidity;BME280_pressure;Samples;Min_cycle;Max_cycle;Signal;HPM_P1;HPM_P2
2023/07/30 00:01:49;;;;;;;30.20;13.52;;;13.90;99.90;;;;;;4955123;28;20030;-81
2023/07/30 00:04:15;;;;;;;19.88;12.68;;;13.90;99.90;;;;;;4955573;28;20046;-81
2023/07/30 00:06:40;;;;;;;23.73;11.20;;;13.90;99.90;;;;;;4954400;28;20042;-81
2023/07/30 00:09:06;;;;;;;25.48;11.15;;;13.90;99.90;;;;;;4971546;28;20043;-81
2023/07/30 00:11:32;;;;;;;23.55;12.15;;;13.90;99.90;;;;;;4954716;28;20047;-81
2023/07/30 00:13:57;;;;;;;22.52;11.30;;;13.90;99.90;;;;;;4973137;28;20035;-81
2023/07/30 00:16:25;;;;;;;23.67;12.38;;;13.80;99.90;;;;;;4958104;28;20089;-81
2023/07/30 00:18:51;;;;;;;20.20;9.45;;;13.90;99.90;;;;;;4965654;28;20385;-81
2023/07/30 00:21:17;;;;;;;23.38;11.50;;;13.80;99.90;;;;;;4994321;28;20038;-81
2023/07/30 00:23:42;;;;;;;22.73;10.40;;;13.80;99.90;;;;;;4942720;28;20125;-81
2023/07/30 00:26:08;;;;;;;26.77;12.10;;;13.80;99.90;;;;;;4973420;28;20146;-80
2023/07/30 00:28:33;;;;;;;27.30;11.73;;;13.80;99.90;;;;;;4974884;28;20042;-81
2023/07/30 00:30:59;;;;;;;22.38;10.02;;;13.70;99.90;;;;;;4958266;28;20493;-81
2023/07/30 00:33:24;;;;;;;39.28;12.98;;;13.70;99.90;;;;;;4956856;28;20106;-81
2023/07/30 00:35:53;;;;;;;16.58;10.18;;;13.70;99.90;;;;;;4971900;28;20657;-81
2023/07/30 00:38:19;;;;;;;24.60;11.02;;;13.70;99.90;;;;;;4958459;28;20035;-82
2023/07/30 00:40:45;;;;;;;24.33;11.38;;;13.70;99.90;;;;;;4958136;28;20560;-81
2023/07/30 00:43:10;;;;;;;25.23;11.23;;;13.70;99.90;;;;;;4972849;28;20046;-81
2023/07/30 00:45:38;;;;;;;21.38;11.02;;;13.70;99.90;;;;;;4957673;28;20046;-81
2023/07/30 00:48:04;;;;;;;24.55;11.48;;;13.70;99.90;;;;;;4958494;28;20043;-81
2023/07/30 00:50:31;;;;;;;22.10;10.40;;;13.70;99.90;;;;;;4958243;28;20038;-81
2023/07/30 00:52:57;;;;;;;29.13;12.65;;;13.70;99.90;;;;;;4972478;28;20035;-81
2023/07/30 00:55:23;;;;;;;18.90;9.45;;;13.60;99.90;;;;;;4957940;28;20169;-81
2023/07/30 00:57:49;;;;;;;30.83;12.40;;;13.70;99.90;;;;;;4957960;28;20096;-81
2023/07/30 01:00:15;;;;;;;21.63;8.52;;;13.60;99.90;;;;;;4958152;28;20070;-81
2023/07/30 01:02:40;;;;;;;20.20;9.27;;;13.60;99.90;;;;;;4960479;28;20042;-81
2023/07/30 01:05:06;;;;;;;23.50;10.00;;;13.60;99.90;;;;;;4956521;28;20512;-81
2023/07/30 01:07:32;;;;;;;27.42;10.80;;;13.60;99.90;;;;;;4956897;28;20049;-81
2023/07/30 01:09:59;;;;;;;21.20;9.63;;;13.60;99.90;;;;;;4957873;28;20390;-81
2023/07/30 01:12:26;;;;;;;30.55;10.88;;;13.60;99.90;;;;;;4971620;28;20038;-81
2023/07/30 01:14:54;;;;;;;21.80;9.38;;;13.60;99.90;;;;;;4957081;28;20046;-81
2023/07/30 01:17:20;;;;;;;18.17;8.82;;;13.60;99.90;;;;;;4957532;28;20043;-81
2023/07/30 01:19:45;;;;;;;22.17;8.98;;;13.60;99.90;;;;;;4956590;28;20449;-81
2023/07/30 01:22:11;;;;;;;22.70;8.55;;;13.60;99.90;;;;;;4981696;28;20030;-81
2023/07/30 01:24:36;;;;;;;24.58;9.57;;;13.60;99.90;;;;;;4959358;28;20138;-81
2023/07/30 01:27:06;;;;;;;24.92;9.43;;;13.60;99.90;;;;;;4973801;28;20461;-81
2023/07/30 01:29:36;;;;;;;29.00;9.85;;;13.60;99.90;;;;;;4965040;28;20500;-81
2023/07/30 01:32:06;;;;;;;30.88;10.48;;;13.50;99.90;;;;;;4955411;28;20039;-81
2023/07/30 01:34:35;;;;;;;15.93;8.77;;;13.60;99.90;;;;;;4971672;28;20060;-81
2023/07/30 01:37:01;;;;;;;33.00;10.93;;;13.60;99.90;;;;;;4957352;28;20093;-81
2023/07/30 01:39:28;;;;;;;26.33;9.93;;;13.50;99.90;;;;;;4957393;28;20038;-81
2023/07/30 01:41:54;;;;;;;20.58;8.77;;;13.50;99.90;;;;;;4969557;28;21018;-81
2023/07/30 01:44:20;;;;;;;21.08;8.25;;;13.50;99.90;;;;;;4955815;28;20504;-81
2023/07/30 01:46:46;;;;;;;23.48;9.00;;;13.50;99.90;;;;;;4957074;28;20557;-81
2023/07/30 01:49:12;;;;;;;19.98;8.80;;;13.50;99.90;;;;;;4971909;28;20181;-81
2023/07/30 01:51:37;;;;;;;18.60;8.00;;;13.50;99.90;;;;;;4971756;28;20047;-82
2023/07/30 01:54:03;;;;;;;20.35;8.68;;;13.50;99.90;;;;;;4956481;28;20497;-81
2023/07/30 01:56:29;;;;;;;19.35;8.63;;;13.40;99.90;;;;;;4956680;28;20046;-81
2023/07/30 01:58:54;;;;;;;23.45;8.50;;;13.50;99.90;;;;;;4957252;28;20039;-81
2023/07/30 02:01:20;;;;;;;22.77;8.50;;;13.40;99.90;;;;;;4955767;28;20770;-81
2023/07/30 02:03:45;;;;;;;22.25;8.40;;;13.40;99.90;;;;;;4956351;28;20505;-81
2023/07/30 02:06:11;;;;;;;32.13;9.25;;;13.50;99.90;;;;;;4972721;28;20043;-81
2023/07/30 02:08:37;;;;;;;23.77;9.13;;;13.50;99.90;;;;;;4956868;28;20050;-81
2023/07/30 02:11:03;;;;;;;20.90;8.40;;;13.50;99.90;;;;;;4956001;28;20405;-81
2023/07/30 02:13:28;;;;;;;22.05;7.90;;;13.50;99.90;;;;;;4987732;28;20066;-81
2023/07/30 02:15:54;;;;;;;18.02;7.50;;;13.50;99.90;;;;;;4956382;28;20043;-81
2023/07/30 02:18:20;;;;;;;22.92;7.95;;;13.60;99.90;;;;;;4957089;28;20039;-81
2023/07/30 02:20:45;;;;;;;17.60;7.00;;;13.60;99.90;;;;;;4972496;28;20077;-81
2023/07/30 02:23:11;;;;;;;19.50;7.05;;;13.60;99.90;;;;;;4953206;28;20564;-81
2023/07/30 02:25:38;;;;;;;17.50;7.35;;;13.60;99.90;;;;;;4956311;28;20137;-81
2023/07/30 02:28:04;;;;;;;18.63;6.85;;;13.70;99.90;;;;;;4972665;28;20561;-81
2023/07/30 02:30:30;;;;;;;21.58;6.30;;;13.70;99.90;;;;;;4972473;28;20122;-82
2023/07/30 02:32:56;;;;;;;21.90;8.40;;;13.70;99.90;;;;;;4954841;28;20189;-81
2023/07/30 02:35:21;;;;;;;17.40;7.65;;;13.80;99.90;;;;;;4955039;28;20594;-81
2023/07/30 02:37:47;;;;;;;20.60;7.18;;;13.80;99.90;;;;;;4956380;28;20085;-81
2023/07/30 02:40:12;;;;;;;22.42;8.18;;;13.80;99.90;;;;;;4972375;28;20129;-81
2023/07/30 02:42:38;;;;;;;22.33;8.02;;;13.80;99.90;;;;;;4955861;28;20074;-82
2023/07/30 02:45:05;;;;;;;18.67;6.30;;;13.90;99.90;;;;;;4955298;28;20386;-81
2023/07/30 02:47:30;;;;;;;18.20;7.20;;;13.90;99.90;;;;;;4951363;29;20047;-81
2023/07/30 02:49:56;;;;;;;20.90;7.68;;;13.90;99.90;;;;;;4952853;29;20050;-81
2023/07/30 02:52:21;;;;;;;17.55;6.32;;;13.90;99.90;;;;;;4947992;28;20042;-81
2023/07/30 02:54:47;;;;;;;13.95;6.72;;;13.90;99.90;;;;;;4955452;28;20038;-81
2023/07/30 02:57:13;;;;;;;18.27;7.68;;;13.90;99.90;;;;;;4971963;28;20070;-81
2023/07/30 02:59:40;;;;;;;20.90;7.10;;;14.00;99.90;;;;;;4955947;28;20042;-81
2023/07/30 03:02:06;;;;;;;19.15;8.25;;;14.00;99.90;;;;;;4955283;28;20429;-81
2023/07/30 03:04:32;;;;;;;22.15;7.88;;;13.90;99.90;;;;;;4972066;28;20057;-81
2023/07/30 03:06:58;;;;;;;13.80;6.82;;;13.90;99.90;;;;;;4955345;28;20035;-82
2023/07/30 03:09:24;;;;;;;17.30;7.30;;;14.00;99.90;;;;;;4956036;28;20452;-81
2023/07/30 03:11:50;;;;;;;19.25;7.22;;;14.00;99.90;;;;;;4955287;28;20085;-82
2023/07/30 03:14:15;;;;;;;19.40;7.15;;;14.00;99.90;;;;;;4962395;28;20039;-81
2023/07/30 03:16:41;;;;;;;19.10;8.00;;;14.00;99.90;;;;;;4942361;29;20041;-81
2023/07/30 03:19:07;;;;;;;20.38;6.95;;;14.10;99.90;;;;;;4952613;29;20039;-81
2023/07/30 03:21:32;;;;;;;23.08;8.05;;;14.00;99.90;;;;;;4945710;28;20133;-81
2023/07/30 03:23:58;;;;;;;17.63;7.78;;;14.10;99.90;;;;;;4963977;28;20073;-81
2023/07/30 03:26:24;;;;;;;19.13;7.05;;;14.10;99.90;;;;;;4955444;28;20042;-82
2023/07/30 03:28:50;;;;;;;17.60;7.97;;;14.10;99.90;;;;;;4952546;29;20066;-82
2023/07/30 03:31:15;;;;;;;15.38;7.35;;;14.20;99.90;;;;;;4961452;28;20038;-81
2023/07/30 03:33:43;;;;;;;20.05;8.13;;;14.10;99.90;;;;;;4971795;28;20091;-82
2023/07/30 03:36:10;;;;;;;27.55;8.90;;;14.10;99.90;;;;;;4954709;28;20092;-81
2023/07/30 03:38:36;;;;;;;19.42;7.82;;;14.10;99.90;;;;;;4977073;28;20039;-82
2023/07/30 03:41:04;;;;;;;19.88;8.15;;;14.10;99.90;;;;;;4969475;28;20035;-81
2023/07/30 03:43:29;;;;;;;20.85;7.43;;;14.10;99.90;;;;;;4971667;28;20039;-81
2023/07/30 03:45:55;;;;;;;21.95;8.90;;;14.10;99.90;;;;;;4971451;28;20097;-81
2023/07/30 03:48:20;;;;;;;22.50;9.10;;;14.10;99.90;;;;;;4975165;28;20054;-81
2023/07/30 03:50:46;;;;;;;21.15;8.50;;;14.10;99.90;;;;;;4956991;28;20693;-81
2023/07/30 03:53:12;;;;;;;26.77;9.48;;;14.10;99.90;;;;;;4978557;28;20047;-81
2023/07/30 03:55:38;;;;;;;18.92;8.25;;;14.00;99.90;;;;;;4977384;28;20074;-81
2023/07/30 03:58:03;;;;;;;21.67;8.50;;;14.00;99.90;;;;;;4975563;28;20043;-81
2023/07/30 04:00:29;;;;;;;26.10;10.35;;;14.00;99.90;;;;;;4975220;28;20074;-81
2023/07/30 04:02:54;;;;;;;20.52;9.13;;;14.00;99.90;;;;;;4971688;28;20049;-81
2023/07/30 04:05:20;;;;;;;17.65;8.52;;;14.00;99.90;;;;;;4977524;28;20049;-81
2023/07/30 04:07:46;;;;;;;22.90;9.25;;;14.00;99.90;;;;;;4986879;28;20101;-81
2023/07/30 04:10:11;;;;;;;28.80;10.57;;;14.00;99.90;;;;;;4975250;28;20090;-81
2023/07/30 04:12:37;;;;;;;21.35;9.35;;;14.00;99.90;;;;;;4974488;28;20125;-81
2023/07/30 04:15:03;;;;;;;28.77;11.30;;;14.00;99.90;;;;;;4974933;28;20401;-81
2023/07/30 04:17:28;;;;;;;26.55;10.30;;;14.00;99.90;;;;;;4974849;28;20125;-81
2023/07/30 04:19:54;;;;;;;22.38;9.48;;;14.00;99.90;;;;;;4975070;28;20126;-81
2023/07/30 04:22:20;;;;;;;21.65;8.70;;;14.00;99.90;;;;;;4965700;28;20097;-81
2023/07/30 04:24:45;;;;;;;24.02;10.07;;;14.10;99.90;;;;;;4958585;28;20047;-82
2023/07/30 04:27:11;;;;;;;29.75;11.20;;;14.10;99.90;;;;;;4974833;28;20125;-81
2023/07/30 04:29:36;;;;;;;25.95;11.02;;;14.10;99.90;;;;;;4970764;28;20050;-81
2023/07/30 04:32:02;;;;;;;24.30;10.32;;;14.20;99.90;;;;;;4939457;29;20505;-81
2023/07/30 04:34:28;;;;;;;24.05;10.40;;;14.30;99.90;;;;;;4955075;28;20046;-81
2023/07/30 04:36:53;;;;;;;22.05;10.52;;;14.30;99.90;;;;;;4955287;29;20035;-81
2023/07/30 04:39:19;;;;;;;23.77;10.07;;;14.30;99.90;;;;;;4959632;28;20117;-81
2023/07/30 04:41:44;;;;;;;21.10;8.57;;;14.40;99.90;;;;;;4974841;28;20038;-81
2023/07/30 04:44:10;;;;;;;31.20;11.13;;;14.50;99.90;;;;;;4974446;28;20046;-82
2023/07/30 04:46:36;;;;;;;23.52;10.20;;;14.50;99.90;;;;;;4958054;28;20070;-81
2023/07/30 04:49:04;;;;;;;24.88;10.95;;;14.60;99.90;;;;;;4954382;28;20043;-82
2023/07/30 04:51:29;;;;;;;24.95;10.68;;;14.60;99.90;;;;;;4973799;28;20089;-82
2023/07/30 04:53:55;;;;;;;24.17;9.27;;;14.70;99.90;;;;;;4957487;28;20039;-81
2023/07/30 04:56:20;;;;;;;22.90;9.48;;;14.80;99.90;;;;;;4957912;28;20035;-81
2023/07/30 04:58:46;;;;;;;31.33;9.55;;;14.80;99.90;;;;;;4971712;28;20039;-81
2023/07/30 05:01:12;;;;;;;32.17;11.70;;;14.90;99.90;;;;;;4975153;28;20049;-82
2023/07/30 05:03:37;;;;;;;25.27;9.57;;;14.90;99.90;;;;;;4971198;28;20069;-81
2023/07/30 05:06:03;;;;;;;27.48;9.75;;;15.00;99.90;;;;;;4957899;28;20043;-82
2023/07/30 05:08:28;;;;;;;26.48;10.30;;;15.00;99.90;;;;;;4988867;28;20042;-82
2023/07/30 05:10:54;;;;;;;22.27;9.13;;;15.00;99.90;;;;;;4974019;28;20122;-82
2023/07/30 05:13:20;;;;;;;27.13;9.70;;;15.20;99.90;;;;;;4975665;28;20449;-82
2023/07/30 05:15:45;;;;;;;23.50;8.15;;;15.40;99.90;;;;;;4963140;28;20043;-82
2023/07/30 05:18:11;;;;;;;21.15;9.00;;;15.50;99.90;;;;;;4973788;28;20038;-81
2023/07/30 05:20:36;;;;;;;23.20;9.23;;;15.50;99.90;;;;;;4985893;28;20050;-82
2023/07/30 05:23:02;;;;;;;26.15;10.02;;;15.50;99.90;;;;;;4978760;28;20113;-82
2023/07/30 05:25:28;;;;;;;22.65;9.15;;;15.50;99.90;;;;;;4996479;22;20030;-74
2023/07/30 05:27:54;;;;;;;23.73;9.68;;;15.50;99.90;;;;;;5003987;28;20108;-74
2023/07/30 05:30:19;;;;;;;25.08;9.82;;;15.50;99.90;;;;;;5017040;28;20042;-74
2023/07/30 05:32:45;;;;;;;22.90;9.77;;;15.60;99.90;;;;;;5006788;28;20037;-75
2023/07/30 05:35:10;;;;;;;22.75;9.45;;;15.60;99.90;;;;;;5012384;28;20042;-74
2023/07/30 05:37:36;;;;;;;23.10;7.82;;;15.60;99.90;;;;;;5006218;28;20041;-74
2023/07/30 05:40:03;;;;;;;26.55;9.52;;;15.70;99.90;;;;;;4983932;28;20039;-75
2023/07/30 05:42:28;;;;;;;32.47;10.48;;;15.70;99.90;;;;;;5012600;28;20403;-74
2023/07/30 05:44:54;;;;;;;25.20;10.13;;;15.70;99.90;;;;;;5012222;28;20042;-74
2023/07/30 05:47:19;;;;;;;25.73;9.20;;;15.80;99.90;;;;;;5008171;28;20121;-75
2023/07/30 05:49:45;;;;;;;26.65;9.70;;;15.70;99.90;;;;;;4994432;28;20133;-75
2023/07/30 05:52:10;;;;;;;24.30;10.65;;;15.70;99.90;;;;;;4980983;28;20528;-74
2023/07/30 05:54:36;;;;;;;26.17;8.90;;;15.80;99.90;;;;;;4988585;28;20096;-74
2023/07/30 05:57:02;;;;;;;29.77;11.05;;;15.80;99.90;;;;;;5011734;28;20034;-75
2023/07/30 05:59:27;;;;;;;25.90;9.80;;;15.90;99.90;;;;;;4987689;28;20077;-74
2023/07/30 06:01:55;;;;;;;20.75;9.07;;;15.90;99.90;;;;;;4989504;28;20045;-76
2023/07/30 06:04:21;;;;;;;25.13;9.38;;;15.90;99.90;;;;;;4986350;28;20113;-75
2023/07/30 06:06:47;;;;;;;28.55;9.25;;;15.90;99.90;;;;;;4980485;28;20126;-75
2023/07/30 06:09:12;;;;;;;22.73;9.35;;;16.00;99.90;;;;;;4968628;28;20439;-75
2023/07/30 06:11:38;;;;;;;26.50;9.30;;;15.90;99.90;;;;;;4992465;28;20069;-75
2023/07/30 06:14:03;;;;;;;25.38;9.23;;;16.00;99.90;;;;;;4989081;28;20065;-74
2023/07/30 06:16:29;;;;;;;26.70;9.40;;;16.10;99.90;;;;;;4994390;28;20034;-74
2023/07/30 06:18:54;;;;;;;24.30;8.55;;;16.10;99.90;;;;;;4995447;28;20121;-74
2023/07/30 06:21:20;;;;;;;20.42;8.15;;;16.20;99.90;;;;;;5000388;28;20049;-74
2023/07/30 06:23:46;;;;;;;23.58;8.35;;;16.20;99.90;;;;;;4980984;28;20105;-74
2023/07/30 06:26:11;;;;;;;21.92;7.88;;;16.30;99.90;;;;;;4983262;28;20038;-74
2023/07/30 06:28:37;;;;;;;24.75;8.50;;;16.40;99.90;;;;;;4999367;28;20042;-75
2023/07/30 06:31:02;;;;;;;23.58;7.63;;;16.50;99.90;;;;;;5007852;28;20054;-74
2023/07/30 06:33:28;;;;;;;19.98;7.28;;;16.60;99.90;;;;;;4987173;28;20397;-74
2023/07/30 06:35:54;;;;;;;23.58;7.93;;;16.60;99.90;;;;;;4982823;28;20045;-75
2023/07/30 06:38:19;;;;;;;20.75;7.43;;;16.70;99.90;;;;;;4983709;28;20141;-74
2023/07/30 06:40:45;;;;;;;19.00;6.53;;;16.80;99.90;;;;;;4999603;28;20124;-74
2023/07/30 06:43:11;;;;;;;16.80;6.30;;;16.90;99.90;;;;;;4984396;28;20078;-75
2023/07/30 06:45:36;;;;;;;19.08;6.72;;;16.90;99.90;;;;;;4978773;28;20042;-74
2023/07/30 06:48:02;;;;;;;22.42;7.13;;;17.00;99.90;;;;;;4971940;28;20042;-75
2023/07/30 06:50:27;;;;;;;19.17;6.22;;;17.10;99.90;;;;;;4975923;28;20042;-75
2023/07/30 06:52:53;;;;;;;21.35;5.88;;;17.20;99.90;;;;;;4985668;28;20045;-75
2023/07/30 06:55:19;;;;;;;19.65;6.70;;;17.30;99.90;;;;;;4979624;28;20122;-75
2023/07/30 06:57:44;;;;;;;19.45;6.30;;;17.30;99.90;;;;;;4977825;28;20035;-74
2023/07/30 07:00:11;;;;;;;20.63;6.68;;;17.40;99.90;;;;;;4972650;28;20097;-74
2023/07/30 07:02:36;;;;;;;18.08;5.82;;;17.40;99.90;;;;;;4982561;28;20133;-75
2023/07/30 07:05:02;;;;;;;18.75;6.25;;;17.40;99.90;;;;;;4974941;28;20126;-75
2023/07/30 07:07:28;;;;;;;16.42;5.93;;;17.50;99.90;;;;;;4971593;28;20041;-75
2023/07/30 07:09:53;;;;;;;20.67;6.35;;;17.50;99.90;;;;;;4971751;28;20062;-74
2023/07/30 07:12:19;;;;;;;18.30;5.60;;;17.60;99.90;;;;;;4987930;28;20046;-75
2023/07/30 07:14:44;;;;;;;20.35;5.50;;;17.60;99.90;;;;;;4973487;28;20034;-75
2023/07/30 07:17:10;;;;;;;19.25;6.20;;;17.60;99.90;;;;;;4979468;28;20515;-75
2023/07/30 07:19:36;;;;;;;17.58;6.20;;;17.60;99.90;;;;;;4971873;28;20101;-75
2023/07/30 07:22:05;;;;;;;14.35;6.50;;;17.60;99.90;;;;;;4971466;28;20042;-75
2023/07/30 07:24:31;;;;;;;15.20;5.65;;;17.60;99.90;;;;;;4971691;28;20035;-75
2023/07/30 07:26:57;;;;;;;16.48;6.05;;;17.70;99.90;;;;;;4971284;28;20522;-75
2023/07/30 07:29:22;;;;;;;16.85;5.97;;;17.90;99.90;;;;;;4973649;28;20039;-75
2023/07/30 07:31:48;;;;;;;13.77;4.70;;;18.00;99.90;;;;;;4982358;28;20524;-75
2023/07/30 07:34:14;;;;;;;18.98;5.50;;;18.00;99.90;;;;;;4974324;28;20516;-75
2023/07/30 07:36:39;;;;;;;14.38;4.88;;;18.10;99.90;;;;;;4966495;28;20049;-75
2023/07/30 07:39:06;;;;;;;16.20;4.93;;;18.10;99.90;;;;;;4989231;28;20588;-75
2023/07/30 07:41:32;;;;;;;19.85;5.47;;;18.00;99.90;;;;;;4987271;28;20130;-76
2023/07/30 07:43:57;;;;;;;15.93;4.78;;;17.90;99.90;;;;;;4987816;28;20105;-76
2023/07/30 07:46:23;;;;;;;14.15;4.95;;;17.80;99.90;;;;;;4995413;28;20060;-75
2023/07/30 07:48:49;;;;;;;16.73;4.97;;;17.90;99.90;;;;;;4976026;28;20034;-74
2023/07/30 07:51:14;;;;;;;15.60;5.07;;;17.90;99.90;;;;;;4987792;28;20049;-75
2023/07/30 07:53:40;;;;;;;14.38;4.75;;;18.00;99.90;;;;;;4977881;28;20600;-76
2023/07/30 07:56:05;;;;;;;17.27;5.00;;;18.10;99.90;;;;;;4988121;28;20126;-75
2023/07/30 07:58:31;;;;;;;15.23;5.07;;;18.20;99.90;;;;;;4987234;28;20042;-75
2023/07/30 08:00:57;;;;;;;15.55;5.00;;;18.30;99.90;;;;;;4997618;28;20124;-75
2023/07/30 08:03:23;;;;;;;14.65;4.90;;;18.40;99.90;;;;;;4991056;28;20050;-75
2023/07/30 08:05:49;;;;;;;15.13;5.07;;;18.40;99.90;;;;;;4990032;28;20120;-76
2023/07/30 08:08:15;;;;;;;13.50;4.07;;;18.50;99.90;;;;;;4984338;28;20046;-75
2023/07/30 08:10:43;;;;;;;14.40;4.55;;;18.60;99.90;;;;;;4995637;28;20038;-75
2023/07/30 08:13:12;;;;;;;11.60;4.72;;;18.80;99.90;;;;;;4991303;28;20118;-75
2023/07/30 08:15:38;;;;;;;15.02;4.85;;;18.90;99.90;;;;;;4980173;28;20129;-75
2023/07/30 08:18:03;;;;;;;13.02;5.38;;;19.20;99.90;;;;;;4990303;28;20065;-74
2023/07/30 08:20:29;;;;;;;13.45;4.68;;;19.70;99.90;;;;;;5010501;28;20045;-75
2023/07/30 08:22:55;;;;;;;12.93;4.45;;;20.50;99.90;;;;;;4969081;28;20041;-76
2023/07/30 08:25:20;;;;;;;13.55;5.20;;;21.10;99.90;;;;;;4970956;28;20186;-76
2023/07/30 08:27:46;;;;;;;11.93;4.60;;;21.20;99.90;;;;;;4971420;28;20043;-75
2023/07/30 08:30:12;;;;;;;15.75;5.32;;;21.20;99.90;;;;;;4979268;28;20472;-75
2023/07/30 08:32:38;;;;;;;11.73;5.10;;;21.00;99.90;;;;;;4970863;28;20039;-74
2023/07/30 08:35:04;;;;;;;11.77;4.93;;;20.80;99.90;;;;;;4975779;28;20045;-75
2023/07/30 08:37:30;;;;;;;13.43;5.30;;;20.70;99.90;;;;;;4977739;28;20035;-75
2023/07/30 08:39:56;;;;;;;13.93;5.88;;;20.60;99.90;;;;;;4993890;28;20050;-75
2023/07/30 08:42:22;;;;;;;12.93;5.18;;;20.40;99.90;;;;;;4993833;28;20122;-75
2023/07/30 08:44:47;;;;;;;16.23;6.18;;;20.20;99.90;;;;;;4992754;28;20512;-75
2023/07/30 08:47:13;;;;;;;13.40;5.60;;;20.10;99.90;;;;;;4983849;28;20046;-74
2023/07/30 08:49:39;;;;;;;16.45;5.40;;;20.00;99.90;;;;;;4974156;28;20050;-75
2023/07/30 08:52:08;;;;;;;14.75;5.65;;;20.00;99.90;;;;;;4958378;28;20031;-75
2023/07/30 08:54:35;;;;;;;14.27;5.03;;;20.10;99.90;;;;;;4974205;28;20038;-74
2023/07/30 08:57:02;;;;;;;9.52;4.43;;;20.10;99.90;;;;;;4974043;28;20097;-75
2023/07/30 08:59:31;;;;;;;12.95;4.95;;;20.20;99.90;;;;;;4978240;28;20122;-75
2023/07/30 09:01:58;;;;;;;10.88;4.40;;;20.30;99.90;;;;;;4986684;28;20377;-75
2023/07/30 09:04:24;;;;;;;13.00;4.85;;;20.50;99.90;;;;;;5015140;28;20448;-74
2023/07/30 09:06:50;;;;;;;12.52;4.40;;;20.60;99.90;;;;;;5004397;28;20053;-75
2023/07/30 09:09:16;;;;;;;13.55;4.68;;;20.40;99.90;;;;;;4995382;28;20117;-75
2023/07/30 09:11:41;;;;;;;11.48;4.28;;;20.30;99.90;;;;;;4967218;28;20069;-74
2023/07/30 09:14:09;;;;;;;12.55;4.07;;;20.10;99.90;;;;;;4993842;28;20073;-76
2023/07/30 09:16:34;;;;;;;12.13;4.32;;;19.80;99.90;;;;;;4993368;28;20113;-76
2023/07/30 09:19:00;;;;;;;13.25;5.03;;;19.70;99.90;;;;;;4988154;28;20038;-76
2023/07/30 09:21:33;;;;;;;13.88;5.07;;;19.70;99.90;;;;;;5012304;28;20044;-76
2023/07/30 09:24:05;;;;;;;12.77;5.07;;;19.90;99.90;;;;;;4969488;28;20563;-76
2023/07/30 09:26:41;;;;;;;13.85;5.32;;;20.10;99.90;;;;;;4992234;28;20416;-76
2023/07/30 09:29:10;;;;;;;13.85;5.47;;;20.00;99.90;;;;;;4976749;28;20085;-75
2023/07/30 09:31:54;;;;;;;13.90;4.72;;;19.80;99.90;;;;;;4982135;28;20046;-75
2023/07/30 09:34:21;;;;;;;17.45;6.38;;;19.50;99.90;;;;;;4995351;28;20039;-76
2023/07/30 09:36:48;;;;;;;13.80;6.00;;;19.10;99.90;;;;;;4990376;28;20400;-76
2023/07/30 09:39:18;;;;;;;13.05;5.00;;;18.90;99.90;;;;;;4980165;28;20106;-73
2023/07/30 09:41:45;;;;;;;12.25;4.47;;;18.80;99.90;;;;;;4979485;28;20405;-76
2023/07/30 09:44:11;;;;;;;12.77;5.22;;;18.60;99.90;;;;;;4979110;28;20038;-75
2023/07/30 09:46:45;;;;;;;14.32;5.40;;;18.60;99.90;;;;;;4988387;28;20400;-75
2023/07/30 09:49:11;;;;;;;11.50;4.38;;;18.70;99.90;;;;;;4982925;28;20107;-76
2023/07/30 09:51:39;;;;;;;14.60;4.88;;;18.70;99.90;;;;;;4984034;28;20050;-74
2023/07/30 09:54:11;;;;;;;13.55;5.72;;;18.70;99.90;;;;;;4988133;28;20093;-75
2023/07/30 09:56:38;;;;;;;15.10;4.90;;;18.60;99.90;;;;;;4985547;28;20038;-74
2023/07/30 09:59:07;;;;;;;14.73;3.83;;;18.50;99.90;;;;;;4982243;28;20497;-75
2023/07/30 10:01:38;;;;;;;13.55;4.63;;;18.40;99.90;;;;;;4992179;28;20135;-75
2023/07/30 10:04:09;;;;;;;24.45;6.70;;;18.10;99.90;;;;;;4992588;28;20085;-75
2023/07/30 10:06:39;;;;;;;16.48;6.15;;;17.90;99.90;;;;;;4991129;28;20718;-75
2023/07/30 10:09:07;;;;;;;16.45;6.32;;;17.80;99.90;;;;;;4982560;28;20058;-76
2023/07/30 10:11:33;;;;;;;13.55;4.45;;;17.80;99.90;;;;;;4972640;28;20051;-75
2023/07/30 10:13:59;;;;;;;16.73;5.53;;;17.70;99.90;;;;;;4956513;28;20042;-75
2023/07/30 10:16:29;;;;;;;13.52;4.68;;;17.70;99.90;;;;;;4958848;28;20532;-75
2023/07/30 10:18:58;;;;;;;17.67;5.60;;;17.60;99.90;;;;;;4991885;28;20092;-75
2023/07/30 10:21:29;;;;;;;14.63;4.65;;;17.60;99.90;;;;;;4980854;28;20078;-75
2023/07/30 10:24:05;;;;;;;13.80;4.50;;;17.60;99.90;;;;;;4972998;28;20042;-74
2023/07/30 10:26:33;;;;;;;11.02;3.65;;;17.60;99.90;;;;;;4979072;28;20090;-76
2023/07/30 10:29:18;;;;;;;14.00;5.10;;;17.60;99.90;;;;;;4966419;28;20072;-76
2023/07/30 10:31:55;;;;;;;13.23;5.13;;;17.70;99.90;;;;;;4988497;28;20039;-76
2023/07/30 10:34:23;;;;;;;11.85;4.95;;;17.80;99.90;;;;;;5002280;28;20073;-76
2023/07/30 10:36:50;;;;;;;12.85;4.90;;;18.00;99.90;;;;;;5005482;28;20514;-76
2023/07/30 10:39:18;;;;;;;14.68;5.63;;;18.40;99.90;;;;;;4992332;28;20133;-75
2023/07/30 10:41:45;;;;;;;12.10;3.90;;;19.00;99.90;;;;;;4995397;28;20617;-76
2023/07/30 10:44:31;;;;;;;9.93;3.22;;;19.80;99.90;;;;;;4998028;28;20045;-74
2023/07/30 10:46:58;;;;;;;9.48;3.22;;;20.40;99.90;;;;;;4991285;28;20050;-76
2023/07/30 10:49:25;;;;;;;8.70;3.03;;;20.90;99.90;;;;;;4991668;28;20133;-76
2023/07/30 10:51:53;;;;;;;7.63;2.30;;;21.30;99.90;;;;;;4982098;28;20615;-77
2023/07/30 10:54:19;;;;;;;7.63;2.65;;;21.50;99.90;;;;;;4989628;28;20443;-76
2023/07/30 10:56:45;;;;;;;7.60;2.78;;;21.80;99.90;;;;;;4973678;28;20484;-76
2023/07/30 10:59:12;;;;;;;6.55;2.20;;;22.00;99.90;;;;;;4979167;28;20045;-76
2023/07/30 11:01:39;;;;;;;9.57;2.30;;;22.50;99.90;;;;;;4987488;28;20039;-75
2023/07/30 11:04:09;;;;;;;8.13;2.20;;;22.90;99.90;;;;;;4983146;28;20488;-75
2023/07/30 11:06:35;;;;;;;8.10;2.30;;;23.00;99.90;;;;;;4986218;28;20504;-76
2023/07/30 11:09:01;;;;;;;8.65;2.15;;;23.40;99.90;;;;;;4999060;28;20053;-76
2023/07/30 11:11:26;;;;;;;7.72;2.40;;;23.70;99.90;;;;;;4994202;28;20034;-76
2023/07/30 11:13:52;;;;;;;8.95;2.63;;;23.80;99.90;;;;;;4999286;28;20066;-75
2023/07/30 11:16:18;;;;;;;7.25;1.88;;;24.20;99.90;;;;;;5006448;28;20041;-76
2023/07/30 11:18:46;;;;;;;7.68;2.03;;;24.30;99.90;;;;;;4991764;28;20492;-76
2023/07/30 11:21:17;;;;;;;10.15;2.13;;;24.40;99.90;;;;;;4999325;28;20076;-76
2023/07/30 11:23:44;;;;;;;8.93;2.20;;;24.50;99.90;;;;;;4988065;28;20491;-77
2023/07/30 11:26:15;;;;;;;6.78;2.05;;;24.60;99.90;;;;;;5002387;28;20636;-76
2023/07/30 11:28:40;;;;;;;7.38;2.10;;;24.70;99.90;;;;;;4997680;28;20042;-75
2023/07/30 11:31:08;;;;;;;7.15;2.30;;;24.70;99.90;;;;;;4998051;28;20085;-75
2023/07/30 11:33:40;;;;;;;7.15;2.17;;;24.80;99.90;;;;;;5000478;28;20046;-76
2023/07/30 11:36:08;;;;;;;9.48;2.20;;;24.80;99.90;;;;;;4975106;28;20077;-76
2023/07/30 11:38:34;;;;;;;7.40;2.13;;;24.70;99.90;;;;;;4996100;28;20058;-75
2023/07/30 11:41:00;;;;;;;7.80;1.98;;;24.90;99.90;;;;;;4984544;28;20038;-76
2023/07/30 11:43:26;;;;;;;6.63;1.67;;;25.20;99.90;;;;;;4997548;28;20042;-76
2023/07/30 11:46:07;;;;;;;9.02;1.90;;;25.30;99.90;;;;;;4985249;28;20093;-77
2023/07/30 11:48:34;;;;;;;6.63;1.80;;;25.50;99.90;;;;;;4981489;28;20069;-76
2023/07/30 11:51:00;;;;;;;8.18;1.60;;;25.40;99.90;;;;;;4973680;28;20046;-77
2023/07/30 11:53:45;;;;;;;5.75;1.63;;;24.90;99.90;;;;;;4988868;28;20369;-77
2023/07/30 11:56:23;;;;;;;6.60;2.20;;;24.50;99.90;;;;;;4989730;28;20069;-77
2023/07/30 11:58:49;;;;;;;6.47;1.90;;;24.10;99.90;;;;;;4987467;28;20074;-76
2023/07/30 12:01:16;;;;;;;7.95;2.05;;;24.10;99.90;;;;;;4988771;28;20038;-76
2023/07/30 12:03:42;;;;;;;7.80;1.85;;;24.20;99.90;;;;;;4988461;28;20357;-75
2023/07/30 12:06:09;;;;;;;6.55;1.92;;;23.90;99.90;;;;;;4989692;28;20038;-76
2023/07/30 12:08:35;;;;;;;6.28;1.50;;;23.60;99.90;;;;;;4987134;28;20047;-77
2023/07/30 12:11:06;;;;;;;7.95;1.92;;;23.20;99.90;;;;;;4968693;28;20038;-76
2023/07/30 12:13:33;;;;;;;6.45;1.90;;;23.10;99.90;;;;;;4992416;28;20105;-76
2023/07/30 12:15:59;;;;;;;7.20;1.90;;;23.10;99.90;;;;;;4978088;28;20039;-77
2023/07/30 12:18:26;;;;;;;5.47;1.40;;;23.30;99.90;;;;;;4986008;28;20026;-76
2023/07/30 12:20:52;;;;;;;5.88;1.80;;;23.40;99.90;;;;;;4985396;28;20049;-77
2023/07/30 12:23:19;;;;;;;5.70;1.80;;;23.70;99.90;;;;;;5000010;28;20468;-77
2023/07/30 12:25:46;;;;;;;8.88;2.25;;;24.00;99.90;;;;;;4993506;28;20057;-78
2023/07/30 12:28:12;;;;;;;6.03;1.90;;;24.10;99.90;;;;;;4987281;28;20148;-78
2023/07/30 12:30:38;;;;;;;7.32;1.85;;;24.20;99.90;;;;;;4984561;28;20047;-77
2023/07/30 12:33:04;;;;;;;6.95;1.73;;;24.30;99.90;;;;;;4993044;28;20386;-77